sensor_id;sensor_type;location;lat;lon;timestamp;temperature;humidity
21121;DHT22;12519;43.318;21.898;2023-03-05T00:03:37;10.6;96.0
21121;DHT22;12519;43.318;21.898;2023-03-05T00:08:14;10.6;96.0
21121;DHT22;12519;43.318;21.898;2023-03-05T00:12:51;10.6;96.0
21121;DHT22;12519;43.318;21.898;2023-03-05T00:17:28;10.6;96.0
21121;DHT22;12519;43.318;21.898;2023-03-05T00:22:04;10.6;96.0
21121;DHT22;12519;43.318;21.898;2023-03-05T00:26:42;10.6;97.0
21121;DHT22;12519;43.318;21.898;2023-03-05T00:31:24;10.6;97.0
21121;DHT22;12519;43.318;21.898;2023-03-05T00:36:09;10.5;97.0
21121;DHT22;12519;43.318;21.898;2023-03-05T00:40:49;10.5;97.0
21121;DHT22;12519;43.318;21.898;2023-03-05T00:45:26;10.5;97.0
21121;DHT22;12519;43.318;21.898;2023-03-05T00:50:04;10.6;97.0
21121;DHT22;12519;43.318;21.898;2023-03-05T00:54:46;10.6;97.0
21121;DHT22;12519;43.318;21.898;2023-03-05T00:59:23;10.6;97.0
21121;DHT22;12519;43.318;21.898;2023-03-05T01:04:00;10.6;97.0
21121;DHT22;12519;43.318;21.898;2023-03-05T01:08:38;10.5;97.0
21121;DHT22;12519;43.318;21.898;2023-03-05T01:13:15;10.5;97.0
21121;DHT22;12519;43.318;21.898;2023-03-05T01:17:53;10.4;97.0
21121;DHT22;12519;43.318;21.898;2023-03-05T01:22:30;10.4;97.0
21121;DHT22;12519;43.318;21.898;2023-03-05T01:27:08;10.4;97.0
21121;DHT22;12519;43.318;21.898;2023-03-05T01:31:45;10.4;97.0
21121;DHT22;12519;43.318;21.898;2023-03-05T01:36:22;10.4;97.0
21121;DHT22;12519;43.318;21.898;2023-03-05T01:40:59;10.4;97.0
21121;DHT22;12519;43.318;21.898;2023-03-05T01:45:35;10.4;97.0
21121;DHT22;12519;43.318;21.898;2023-03-05T01:50:56;10.3;97.0
21121;DHT22;12519;43.318;21.898;2023-03-05T01:55:33;10.3;97.0
21121;DHT22;12519;43.318;21.898;2023-03-05T02:00:13;10.2;96.0
21121;DHT22;12519;43.318;21.898;2023-03-05T02:05:07;10.2;96.0
21121;DHT22;12519;43.318;21.898;2023-03-05T02:09:57;10.1;96.0
21121;DHT22;12519;43.318;21.898;2023-03-05T02:14:34;10.1;96.0
21121;DHT22;12519;43.318;21.898;2023-03-05T02:19:15;10.0;96.0
21121;DHT22;12519;43.318;21.898;2023-03-05T02:23:52;10.0;96.0
21121;DHT22;12519;43.318;21.898;2023-03-05T02:28:31;9.9;97.0
21121;DHT22;12519;43.318;21.898;2023-03-05T02:33:27;9.9;97.0
21121;DHT22;12519;43.318;21.898;2023-03-05T02:38:04;9.8;97.0
21121;DHT22;12519;43.318;21.898;2023-03-05T02:42:42;9.8;97.0
21121;DHT22;12519;43.318;21.898;2023-03-05T02:47:20;9.8;97.0
21121;DHT22;12519;43.318;21.898;2023-03-05T02:51:57;9.8;97.0
21121;DHT22;12519;43.318;21.898;2023-03-05T02:56:33;9.8;97.0
21121;DHT22;12519;43.318;21.898;2023-03-05T03:01:10;9.8;97.0
21121;DHT22;12519;43.318;21.898;2023-03-05T03:05:47;9.8;97.0
21121;DHT22;12519;43.318;21.898;2023-03-05T03:10:23;9.8;97.0
21121;DHT22;12519;43.318;21.898;2023-03-05T03:15:00;9.8;97.0
21121;DHT22;12519;43.318;21.898;2023-03-05T03:19:39;9.7;97.0
21121;DHT22;12519;43.318;21.898;2023-03-05T03:24:19;9.7;97.0
21121;DHT22;12519;43.318;21.898;2023-03-05T03:28:56;9.7;97.0
21121;DHT22;12519;43.318;21.898;2023-03-05T03:33:34;9.7;97.0
21121;DHT22;12519;43.318;21.898;2023-03-05T03:38:11;9.7;97.0
21121;DHT22;12519;43.318;21.898;2023-03-05T03:42:50;9.7;97.0
21121;DHT22;12519;43.318;21.898;2023-03-05T03:47:27;9.8;97.0
21121;DHT22;12519;43.318;21.898;2023-03-05T03:52:07;9.8;97.0
21121;DHT22;12519;43.318;21.898;2023-03-05T03:56:44;9.8;96.0
21121;DHT22;12519;43.318;21.898;2023-03-05T04:01:23;9.8;96.0
21121;DHT22;12519;43.318;21.898;2023-03-05T04:05:59;9.8;96.0
21121;DHT22;12519;43.318;21.898;2023-03-05T04:10:36;9.7;97.0
21121;DHT22;12519;43.318;21.898;2023-03-05T04:15:14;9.7;97.0
21121;DHT22;12519;43.318;21.898;2023-03-05T04:19:50;9.6;98.0
21121;DHT22;12519;43.318;21.898;2023-03-05T04:24:27;9.6;98.0
21121;DHT22;12519;43.318;21.898;2023-03-05T04:29:03;9.6;98.0
21121;DHT22;12519;43.318;21.898;2023-03-05T04:33:40;9.6;98.0
21121;DHT22;12519;43.318;21.898;2023-03-05T04:38:16;9.5;98.0
21121;DHT22;12519;43.318;21.898;2023-03-05T04:42:53;9.5;98.0
21121;DHT22;12519;43.318;21.898;2023-03-05T04:47:29;9.4;98.0
21121;DHT22;12519;43.318;21.898;2023-03-05T04:52:06;9.4;98.0
21121;DHT22;12519;43.318;21.898;2023-03-05T04:56:49;9.4;98.0
21121;DHT22;12519;43.318;21.898;2023-03-05T05:01:27;9.4;98.0
21121;DHT22;12519;43.318;21.898;2023-03-05T05:06:04;9.4;98.0
21121;DHT22;12519;43.318;21.898;2023-03-05T05:10:42;9.8;98.0
21121;DHT22;12519;43.318;21.898;2023-03-05T05:15:19;9.8;98.0
21121;DHT22;12519;43.318;21.898;2023-03-05T05:19:56;10.1;98.0
21121;DHT22;12519;43.318;21.898;2023-03-05T05:24:35;10.1;98.0
21121;DHT22;12519;43.318;21.898;2023-03-05T05:29:11;10.3;96.0
21121;DHT22;12519;43.318;21.898;2023-03-05T05:33:48;10.3;96.0
21121;DHT22;12519;43.318;21.898;2023-03-05T05:38:24;10.5;95.0
21121;DHT22;12519;43.318;21.898;2023-03-05T05:43:01;10.5;95.0
21121;DHT22;12519;43.318;21.898;2023-03-05T05:47:38;10.0;96.0
21121;DHT22;12519;43.318;21.898;2023-03-05T06:01:44;9.5;96.0
21121;DHT22;12519;43.318;21.898;2023-03-05T06:06:22;9.5;96.0
21121;DHT22;12519;43.318;21.898;2023-03-05T06:11:03;9.4;96.0
21121;DHT22;12519;43.318;21.898;2023-03-05T06:15:41;9.4;96.0
21121;DHT22;12519;43.318;21.898;2023-03-05T06:20:17;9.4;96.0
21121;DHT22;12519;43.318;21.898;2023-03-05T06:24:56;9.4;96.0
21121;DHT22;12519;43.318;21.898;2023-03-05T06:29:32;9.3;97.0
21121;DHT22;12519;43.318;21.898;2023-03-05T06:34:09;9.3;97.0
21121;DHT22;12519;43.318;21.898;2023-03-05T06:38:47;9.2;97.0
21121;DHT22;12519;43.318;21.898;2023-03-05T06:43:29;9.2;97.0
21121;DHT22;12519;43.318;21.898;2023-03-05T06:48:07;9.1;97.0
21121;DHT22;12519;43.318;21.898;2023-03-05T06:52:48;9.1;97.0
21121;DHT22;12519;43.318;21.898;2023-03-05T06:57:25;9.0;98.0
21121;DHT22;12519;43.318;21.898;2023-03-05T07:02:01;9.0;98.0
21121;DHT22;12519;43.318;21.898;2023-03-05T07:06:38;9.0;98.0
21121;DHT22;12519;43.318;21.898;2023-03-05T07:11:19;9.0;97.0
21121;DHT22;12519;43.318;21.898;2023-03-05T07:15:57;9.0;97.0
21121;DHT22;12519;43.318;21.898;2023-03-05T07:20:34;9.0;96.0
21121;DHT22;12519;43.318;21.898;2023-03-05T07:25:12;9.0;96.0
21121;DHT22;12519;43.318;21.898;2023-03-05T07:29:48;9.1;96.0
21121;DHT22;12519;43.318;21.898;2023-03-05T07:34:25;9.1;96.0
21121;DHT22;12519;43.318;21.898;2023-03-05T07:39:02;9.2;96.0
21121;DHT22;12519;43.318;21.898;2023-03-05T07:43:39;9.2;96.0
21121;DHT22;12519;43.318;21.898;2023-03-05T07:48:17;9.1;94.0
21121;DHT22;12519;43.318;21.898;2023-03-05T07:52:54;9.1;94.0
21121;DHT22;12519;43.318;21.898;2023-03-05T07:57:30;9.1;91.0
21121;DHT22;12519;43.318;21.898;2023-03-05T08:02:09;9.1;91.0
21121;DHT22;12519;43.318;21.898;2023-03-05T08:06:48;9.1;91.0
21121;DHT22;12519;43.318;21.898;2023-03-05T08:11:25;9.5;90.0
21121;DHT22;12519;43.318;21.898;2023-03-05T08:16:04;9.5;90.0
21121;DHT22;12519;43.318;21.898;2023-03-05T08:20:48;9.9;88.0
21121;DHT22;12519;43.318;21.898;2023-03-05T08:25:24;9.9;88.0
21121;DHT22;12519;43.318;21.898;2023-03-05T08:30:00;10.1;88.0
21121;DHT22;12519;43.318;21.898;2023-03-05T08:34:37;10.1;88.0
21121;DHT22;12519;43.318;21.898;2023-03-05T08:39:14;10.3;88.0
21121;DHT22;12519;43.318;21.898;2023-03-05T08:43:52;10.3;88.0
21121;DHT22;12519;43.318;21.898;2023-03-05T08:48:30;10.4;87.0
21121;DHT22;12519;43.318;21.898;2023-03-05T08:53:09;10.4;87.0
21121;DHT22;12519;43.318;21.898;2023-03-05T08:57:46;10.4;86.0
21121;DHT22;12519;43.318;21.898;2023-03-05T09:02:23;10.4;86.0
21121;DHT22;12519;43.318;21.898;2023-03-05T09:07:00;10.5;83.0
21121;DHT22;12519;43.318;21.898;2023-03-05T09:11:36;10.5;83.0
21121;DHT22;12519;43.318;21.898;2023-03-05T09:16:15;10.5;83.0
21121;DHT22;12519;43.318;21.898;2023-03-05T09:20:56;10.6;80.0
21121;DHT22;12519;43.318;21.898;2023-03-05T09:25:38;10.6;80.0
21121;DHT22;12519;43.318;21.898;2023-03-05T09:30:16;10.4;80.0
21121;DHT22;12519;43.318;21.898;2023-03-05T09:34:53;10.4;80.0
21121;DHT22;12519;43.318;21.898;2023-03-05T09:39:29;10.3;80.0
21121;DHT22;12519;43.318;21.898;2023-03-05T09:44:16;10.3;80.0
21121;DHT22;12519;43.318;21.898;2023-03-05T09:49:29;10.4;79.0
21121;DHT22;12519;43.318;21.898;2023-03-05T09:54:37;10.4;79.0
21121;DHT22;12519;43.318;21.898;2023-03-05T09:59:31;10.4;79.0
21121;DHT22;12519;43.318;21.898;2023-03-05T10:04:37;10.4;79.0
21121;DHT22;12519;43.318;21.898;2023-03-05T10:09:41;10.4;78.0
21121;DHT22;12519;43.318;21.898;2023-03-05T10:14:35;10.4;78.0
21121;DHT22;12519;43.318;21.898;2023-03-05T10:19:22;10.5;78.0
21121;DHT22;12519;43.318;21.898;2023-03-05T10:25:10;10.5;78.0
21121;DHT22;12519;43.318;21.898;2023-03-05T10:30:30;10.4;77.0
21121;DHT22;12519;43.318;21.898;2023-03-05T10:36:19;10.4;77.0
21121;DHT22;12519;43.318;21.898;2023-03-05T10:41:41;10.3;77.0
21121;DHT22;12519;43.318;21.898;2023-03-05T10:46:59;10.3;77.0
21121;DHT22;12519;43.318;21.898;2023-03-05T10:52:05;10.4;77.0
21121;DHT22;12519;43.318;21.898;2023-03-05T10:57:07;10.4;77.0
21121;DHT22;12519;43.318;21.898;2023-03-05T11:02:02;10.6;77.0
21121;DHT22;12519;43.318;21.898;2023-03-05T11:06:44;10.6;77.0
21121;DHT22;12519;43.318;21.898;2023-03-05T11:11:22;11.8;80.0
21121;DHT22;12519;43.318;21.898;2023-03-05T11:15:59;11.8;80.0
21121;DHT22;12519;43.318;21.898;2023-03-05T11:20:51;13.1;84.0
21121;DHT22;12519;43.318;21.898;2023-03-05T11:25:58;13.1;84.0
21121;DHT22;12519;43.318;21.898;2023-03-05T11:31:00;14.4;78.0
21121;DHT22;12519;43.318;21.898;2023-03-05T11:36:12;14.4;78.0
21121;DHT22;12519;43.318;21.898;2023-03-05T11:41:08;15.7;72.0
21121;DHT22;12519;43.318;21.898;2023-03-05T11:45:49;15.7;72.0
21121;DHT22;12519;43.318;21.898;2023-03-05T11:50:40;15.7;72.0
21121;DHT22;12519;43.318;21.898;2023-03-05T11:55:40;15.7;72.0
21121;DHT22;12519;43.318;21.898;2023-03-05T12:31:37;11.7;70.0
21121;DHT22;12519;43.318;21.898;2023-03-05T12:36:37;11.7;70.0
21121;DHT22;12519;43.318;21.898;2023-03-05T12:41:34;11.7;70.0
21121;DHT22;12519;43.318;21.898;2023-03-05T12:46:27;11.7;70.0
21121;DHT22;12519;43.318;21.898;2023-03-05T12:51:04;11.6;70.0
21121;DHT22;12519;43.318;21.898;2023-03-05T12:56:14;11.6;70.0
21121;DHT22;12519;43.318;21.898;2023-03-05T13:01:26;11.5;70.0
21121;DHT22;12519;43.318;21.898;2023-03-05T13:06:32;11.5;70.0
21121;DHT22;12519;43.318;21.898;2023-03-05T13:11:22;11.6;70.0
21121;DHT22;12519;43.318;21.898;2023-03-05T13:16:04;11.6;70.0
21121;DHT22;12519;43.318;21.898;2023-03-05T13:21:07;11.6;69.0
21121;DHT22;12519;43.318;21.898;2023-03-05T13:26:14;11.6;69.0
21121;DHT22;12519;43.318;21.898;2023-03-05T13:31:11;11.6;69.0
21121;DHT22;12519;43.318;21.898;2023-03-05T13:35:52;11.6;69.0
21121;DHT22;12519;43.318;21.898;2023-03-05T13:40:32;11.7;68.0
21121;DHT22;12519;43.318;21.898;2023-03-05T13:45:29;11.7;68.0
21121;DHT22;12519;43.318;21.898;2023-03-05T13:50:29;11.6;68.0
21121;DHT22;12519;43.318;21.898;2023-03-05T13:55:17;11.6;68.0
21121;DHT22;12519;43.318;21.898;2023-03-05T13:59:54;11.6;68.0
21121;DHT22;12519;43.318;21.898;2023-03-05T14:04:45;11.6;68.0
21121;DHT22;12519;43.318;21.898;2023-03-05T14:09:41;11.6;68.0
21121;DHT22;12519;43.318;21.898;2023-03-05T14:14:28;11.6;68.0
21121;DHT22;12519;43.318;21.898;2023-03-05T14:19:38;11.5;68.0
21121;DHT22;12519;43.318;21.898;2023-03-05T14:24:26;11.5;68.0
21121;DHT22;12519;43.318;21.898;2023-03-05T14:29:21;11.6;67.0
21121;DHT22;12519;43.318;21.898;2023-03-05T14:34:07;11.6;67.0
21121;DHT22;12519;43.318;21.898;2023-03-05T14:39:01;11.6;67.0
21121;DHT22;12519;43.318;21.898;2023-03-05T14:43:37;11.6;67.0
21121;DHT22;12519;43.318;21.898;2023-03-05T14:48:17;11.4;67.0
21121;DHT22;12519;43.318;21.898;2023-03-05T14:53:14;11.4;67.0
21121;DHT22;12519;43.318;21.898;2023-03-05T14:58:13;11.3;67.0
21121;DHT22;12519;43.318;21.898;2023-03-05T15:02:58;11.3;67.0
21121;DHT22;12519;43.318;21.898;2023-03-05T15:07:35;11.3;67.0
21121;DHT22;12519;43.318;21.898;2023-03-05T15:12:17;11.1;68.0
21121;DHT22;12519;43.318;21.898;2023-03-05T15:16:54;11.1;68.0
21121;DHT22;12519;43.318;21.898;2023-03-05T15:21:30;10.9;68.0
21121;DHT22;12519;43.318;21.898;2023-03-05T15:26:14;10.9;68.0
21121;DHT22;12519;43.318;21.898;2023-03-05T15:30:50;10.6;68.0
21121;DHT22;12519;43.318;21.898;2023-03-05T15:35:27;10.6;68.0
21121;DHT22;12519;43.318;21.898;2023-03-05T15:40:08;10.4;69.0
21121;DHT22;12519;43.318;21.898;2023-03-05T15:44:45;10.4;69.0
21121;DHT22;12519;43.318;21.898;2023-03-05T15:49:22;10.4;69.0
21121;DHT22;12519;43.318;21.898;2023-03-05T15:53:58;10.4;69.0
21121;DHT22;12519;43.318;21.898;2023-03-05T15:58:35;10.3;70.0
21121;DHT22;12519;43.318;21.898;2023-03-05T16:03:11;10.3;70.0
21121;DHT22;12519;43.318;21.898;2023-03-05T16:07:53;10.3;70.0
21121;DHT22;12519;43.318;21.898;2023-03-05T16:12:40;10.3;70.0
21121;DHT22;12519;43.318;21.898;2023-03-05T16:17:22;10.3;70.0
21121;DHT22;12519;43.318;21.898;2023-03-05T16:22:00;10.3;70.0
21121;DHT22;12519;43.318;21.898;2023-03-05T16:26:40;10.3;70.0
21121;DHT22;12519;43.318;21.898;2023-03-05T16:31:17;10.3;70.0
21121;DHT22;12519;43.318;21.898;2023-03-05T16:36:25;10.3;70.0
21121;DHT22;12519;43.318;21.898;2023-03-05T16:41:04;10.3;70.0
21121;DHT22;12519;43.318;21.898;2023-03-05T16:45:40;10.3;70.0
21121;DHT22;12519;43.318;21.898;2023-03-05T16:50:17;10.1;70.0
21121;DHT22;12519;43.318;21.898;2023-03-05T16:54:55;10.1;70.0
21121;DHT22;12519;43.318;21.898;2023-03-05T16:59:31;9.9;71.0
21121;DHT22;12519;43.318;21.898;2023-03-05T17:04:08;9.9;71.0
21121;DHT22;12519;43.318;21.898;2023-03-05T17:08:49;10.0;71.0
21121;DHT22;12519;43.318;21.898;2023-03-05T17:13:25;10.0;71.0
21121;DHT22;12519;43.318;21.898;2023-03-05T17:18:03;10.1;71.0
21121;DHT22;12519;43.318;21.898;2023-03-05T17:22:40;10.1;71.0
21121;DHT22;12519;43.318;21.898;2023-03-05T17:27:17;10.1;71.0
21121;DHT22;12519;43.318;21.898;2023-03-05T17:31:53;9.9;71.0
21121;DHT22;12519;43.318;21.898;2023-03-05T17:36:30;9.9;71.0
21121;DHT22;12519;43.318;21.898;2023-03-05T17:41:07;9.7;71.0
21121;DHT22;12519;43.318;21.898;2023-03-05T17:45:46;9.7;71.0
21121;DHT22;12519;43.318;21.898;2023-03-05T17:50:22;9.6;72.0
21121;DHT22;12519;43.318;21.898;2023-03-05T17:54:59;9.6;72.0
21121;DHT22;12519;43.318;21.898;2023-03-05T17:59:35;9.4;72.0
21121;DHT22;12519;43.318;21.898;2023-03-05T18:04:11;9.4;72.0
21121;DHT22;12519;43.318;21.898;2023-03-05T18:08:49;9.2;73.0
21121;DHT22;12519;43.318;21.898;2023-03-05T18:13:25;9.2;73.0
21121;DHT22;12519;43.318;21.898;2023-03-05T18:18:02;9.2;73.0
21121;DHT22;12519;43.318;21.898;2023-03-05T18:22:39;9.0;74.0
21121;DHT22;12519;43.318;21.898;2023-03-05T18:27:15;9.0;74.0
21121;DHT22;12519;43.318;21.898;2023-03-05T18:31:53;8.8;74.0
21121;DHT22;12519;43.318;21.898;2023-03-05T18:36:29;8.8;74.0
21121;DHT22;12519;43.318;21.898;2023-03-05T18:41:06;8.7;75.0
21121;DHT22;12519;43.318;21.898;2023-03-05T18:45:44;8.7;75.0
21121;DHT22;12519;43.318;21.898;2023-03-05T18:50:28;8.7;76.0
21121;DHT22;12519;43.318;21.898;2023-03-05T18:55:09;8.7;76.0
21121;DHT22;12519;43.318;21.898;2023-03-05T18:59:47;8.7;77.0
21121;DHT22;12519;43.318;21.898;2023-03-05T19:04:23;8.7;77.0
21121;DHT22;12519;43.318;21.898;2023-03-05T19:09:41;8.8;76.0
21121;DHT22;12519;43.318;21.898;2023-03-05T19:14:18;8.8;76.0
21121;DHT22;12519;43.318;21.898;2023-03-05T19:19:10;9.0;75.0
21121;DHT22;12519;43.318;21.898;2023-03-05T19:23:50;9.0;75.0
21121;DHT22;12519;43.318;21.898;2023-03-05T19:28:28;9.1;75.0
21121;DHT22;12519;43.318;21.898;2023-03-05T19:33:04;9.1;75.0
21121;DHT22;12519;43.318;21.898;2023-03-05T19:37:41;9.1;75.0
21121;DHT22;12519;43.318;21.898;2023-03-05T19:42:19;9.2;75.0
21121;DHT22;12519;43.318;21.898;2023-03-05T19:46:57;9.2;75.0
21121;DHT22;12519;43.318;21.898;2023-03-05T19:51:35;9.2;75.0
21121;DHT22;12519;43.318;21.898;2023-03-05T19:56:17;9.2;75.0
21121;DHT22;12519;43.318;21.898;2023-03-05T20:00:54;9.2;76.0
21121;DHT22;12519;43.318;21.898;2023-03-05T20:05:32;9.2;76.0
21121;DHT22;12519;43.318;21.898;2023-03-05T20:10:11;9.0;76.0
21121;DHT22;12519;43.318;21.898;2023-03-05T20:14:48;9.0;76.0
21121;DHT22;12519;43.318;21.898;2023-03-05T20:19:25;8.7;77.0
21121;DHT22;12519;43.318;21.898;2023-03-05T20:24:13;8.7;77.0
21121;DHT22;12519;43.318;21.898;2023-03-05T20:28:57;8.8;77.0
21121;DHT22;12519;43.318;21.898;2023-03-05T20:33:35;8.8;77.0
21121;DHT22;12519;43.318;21.898;2023-03-05T20:38:17;8.8;77.0
21121;DHT22;12519;43.318;21.898;2023-03-05T20:42:54;8.8;76.0
21121;DHT22;12519;43.318;21.898;2023-03-05T20:47:43;8.8;76.0
21121;DHT22;12519;43.318;21.898;2023-03-05T20:52:19;8.6;76.0
21121;DHT22;12519;43.318;21.898;2023-03-05T20:56:56;8.6;76.0
21121;DHT22;12519;43.318;21.898;2023-03-05T21:01:39;8.5;77.0
21121;DHT22;12519;43.318;21.898;2023-03-05T21:06:16;8.5;77.0
21121;DHT22;12519;43.318;21.898;2023-03-05T21:10:52;8.4;77.0
21121;DHT22;12519;43.318;21.898;2023-03-05T21:15:31;8.4;77.0
21121;DHT22;12519;43.318;21.898;2023-03-05T21:20:16;8.2;77.0
21121;DHT22;12519;43.318;21.898;2023-03-05T21:25:11;8.2;77.0
21121;DHT22;12519;43.318;21.898;2023-03-05T21:29:49;8.4;78.0
21121;DHT22;12519;43.318;21.898;2023-03-05T21:34:26;8.4;78.0
21121;DHT22;12519;43.318;21.898;2023-03-05T21:39:03;8.6;79.0
21121;DHT22;12519;43.318;21.898;2023-03-05T21:43:40;8.6;79.0
21121;DHT22;12519;43.318;21.898;2023-03-05T21:48:19;8.6;79.0
21121;DHT22;12519;43.318;21.898;2023-03-05T21:52:55;8.2;79.0
21121;DHT22;12519;43.318;21.898;2023-03-05T21:57:33;8.2;79.0
21121;DHT22;12519;43.318;21.898;2023-03-05T22:02:15;7.8;79.0
21121;DHT22;12519;43.318;21.898;2023-03-05T22:06:56;7.8;79.0
21121;DHT22;12519;43.318;21.898;2023-03-05T22:11:33;7.4;79.0
21121;DHT22;12519;43.318;21.898;2023-03-05T22:16:20;7.4;79.0
21121;DHT22;12519;43.318;21.898;2023-03-05T22:21:02;7.1;80.0
21121;DHT22;12519;43.318;21.898;2023-03-05T22:25:43;7.1;80.0
21121;DHT22;12519;43.318;21.898;2023-03-05T22:30:22;7.3;82.0
21121;DHT22;12519;43.318;21.898;2023-03-05T22:35:00;7.3;82.0
21121;DHT22;12519;43.318;21.898;2023-03-05T22:39:40;7.5;85.0
21121;DHT22;12519;43.318;21.898;2023-03-05T22:44:17;7.5;85.0
21121;DHT22;12519;43.318;21.898;2023-03-05T22:48:54;7.6;83.0
21121;DHT22;12519;43.318;21.898;2023-03-05T22:53:32;7.6;83.0
21121;DHT22;12519;43.318;21.898;2023-03-05T22:58:09;7.6;83.0
21121;DHT22;12519;43.318;21.898;2023-03-05T23:02:47;7.7;80.0
21121;DHT22;12519;43.318;21.898;2023-03-05T23:07:33;7.7;80.0
21121;DHT22;12519;43.318;21.898;2023-03-05T23:12:12;7.4;81.0
21121;DHT22;12519;43.318;21.898;2023-03-05T23:16:49;7.4;81.0
21121;DHT22;12519;43.318;21.898;2023-03-05T23:21:25;7.1;81.0
21121;DHT22;12519;43.318;21.898;2023-03-05T23:26:03;7.1;81.0
21121;DHT22;12519;43.318;21.898;2023-03-05T23:30:39;6.9;82.0
21121;DHT22;12519;43.318;21.898;2023-03-05T23:35:25;6.9;82.0
21121;DHT22;12519;43.318;21.898;2023-03-05T23:40:10;6.7;82.0
21121;DHT22;12519;43.318;21.898;2023-03-05T23:44:47;6.7;82.0
21121;DHT22;12519;43.318;21.898;2023-03-05T23:49:25;6.7;82.0
21121;DHT22;12519;43.318;21.898;2023-03-05T23:54:01;6.7;82.0
21121;DHT22;12519;43.318;21.898;2023-03-05T23:58:39;6.7;82.0
